Weather at Smiths Falls-Montague (Russ Beach) Airport

Public forecast

Using degrees Celsius for public forecast. Weather courtesy of forecast.io.

Closest aviation weather report (METAR) to Smiths Falls-Montague (Russ Beach) Airport

Closest report is Ottawa Macdonald-Cartier International Airport, 25.4 nm (47.0 km) NNE. Retrieved 2021/02/27 05:00 UTC (32 minutes ago):

CYOW 270500Z 06006KT 15SM FEW250 M11/M13 A3024 RMK CI1 CI TR SLP248

Closest aviation forecast (TAF) to Smiths Falls-Montague (Russ Beach) Airport

Closest forecast is Ottawa Macdonald-Cartier International Airport, 25.4 nm (47.0 km) NNE. Retrieved 2021-02-27 03:42 UTC (2 hours ago):

TAF CYOW 270238Z 2703/2724 15005KT P6SM FEW220 FM270400 09007KT P6SM SKC FM271000 09007KT P6SM FEW030 BKN120 OVC200 FM271300 08008KT 2SM -SN BKN015 OVC030 FM271400 08008KT 1SM -SN VV008 PROB30 2714/2716 3/4SM -SN VV006 FM271700 08008KT 3SM -RASN SCT003 OVC006 PROB30 2717/2719 2SM -RA BR BKN003 OVC006 FM271900 19012KT 6SM -RA BR BKN008 OVC015 FM272100 24015G25KT P6SM -SHRA BKN015 OVC030 RMK NXT FCST BY 270600Z